Time;durP1;ratioP1;P1;durP2;ratioP2;P2;SDS_P1;SDS_P2;PMS_P1;PMS_P2;Temp;Humidity;BMP_temperature;BMP_pressure;BME280_temperature;BME280_humidity;BME280_pressure;Samples;Min_cycle;Max_cycle;Signal;HPM_P1;HPM_P2
2021/11/05 00:01:57;;;;;;;27.50;17.23;;;13.00;73.00;;;;;;5008601;28;20021;-84
2021/11/05 00:04:23;;;;;;;27.75;16.85;;;12.90;73.10;;;;;;5009999;28;20439;-84
2021/11/05 00:06:49;;;;;;;24.23;16.10;;;12.90;73.10;;;;;;5006167;28;20120;-85
2021/11/05 00:09:15;;;;;;;24.67;15.80;;;13.00;73.30;;;;;;5005384;28;20053;-85
2021/11/05 00:11:41;;;;;;;26.05;15.85;;;12.90;73.30;;;;;;5004740;28;20476;-85
2021/11/05 00:14:07;;;;;;;25.35;15.73;;;12.90;73.30;;;;;;5007242;28;20038;-84
2021/11/05 00:16:33;;;;;;;25.92;16.50;;;12.90;73.30;;;;;;5004005;28;20114;-84
2021/11/05 00:18:59;;;;;;;26.45;15.77;;;12.90;73.90;;;;;;4985796;28;20048;-83
2021/11/05 00:21:24;;;;;;;27.25;16.30;;;12.90;73.40;;;;;;5004552;28;20138;-82
2021/11/05 00:23:50;;;;;;;24.67;15.95;;;12.90;73.40;;;;;;5003864;28;20069;-82
2021/11/05 00:26:16;;;;;;;26.95;16.77;;;12.90;73.50;;;;;;5005502;28;20528;-85
2021/11/05 00:28:45;;;;;;;26.45;16.80;;;12.90;73.50;;;;;;5006770;28;20028;-83
2021/11/05 00:31:11;;;;;;;26.40;16.08;;;12.90;73.60;;;;;;5004285;28;20060;-85
2021/11/05 00:33:39;;;;;;;26.95;16.88;;;13.00;73.70;;;;;;5004271;28;20034;-87
2021/11/05 00:36:17;;;;;;;25.23;15.85;;;12.90;73.70;;;;;;5005733;28;20639;-83
2021/11/05 00:38:47;;;;;;;24.73;15.98;;;12.90;73.80;;;;;;5003203;28;20464;-84
2021/11/05 00:41:16;;;;;;;24.60;15.32;;;12.90;73.90;;;;;;5005999;28;20112;-82
2021/11/05 00:43:43;;;;;;;27.80;16.58;;;12.90;74.00;;;;;;5005351;28;20033;-83
2021/11/05 00:46:09;;;;;;;27.50;16.80;;;12.90;74.10;;;;;;5003428;28;20034;-83
2021/11/05 00:48:35;;;;;;;27.58;17.33;;;12.90;74.10;;;;;;5001237;28;20037;-83
2021/11/05 00:51:01;;;;;;;30.27;16.88;;;12.90;74.20;;;;;;5003443;28;20087;-84
2021/11/05 00:53:27;;;;;;;25.42;16.27;;;12.90;74.30;;;;;;5002072;28;20063;-82
2021/11/05 00:55:54;;;;;;;27.25;16.48;;;12.90;74.40;;;;;;5004775;28;20056;-83
2021/11/05 00:58:20;;;;;;;28.48;16.77;;;12.90;74.60;;;;;;5019346;28;20068;-82
2021/11/05 01:00:46;;;;;;;27.35;16.35;;;12.90;74.70;;;;;;5002940;28;20034;-82
2021/11/05 01:03:12;;;;;;;27.10;16.67;;;12.90;74.80;;;;;;5004952;28;20075;-83
2021/11/05 01:05:38;;;;;;;28.83;17.40;;;12.90;75.00;;;;;;5005086;28;20038;-84
2021/11/05 01:08:07;;;;;;;25.80;16.50;;;12.90;75.00;;;;;;5004033;28;20392;-83
2021/11/05 01:10:37;;;;;;;31.80;17.67;;;12.90;75.10;;;;;;5018849;28;20054;-83
2021/11/05 01:13:06;;;;;;;28.80;17.10;;;12.90;75.30;;;;;;5003820;28;20037;-83
2021/11/05 01:15:33;;;;;;;30.25;18.13;;;12.90;75.40;;;;;;5004608;28;20073;-84
2021/11/05 01:17:59;;;;;;;32.05;18.30;;;13.00;75.50;;;;;;5004575;28;20034;-84
2021/11/05 01:20:25;;;;;;;30.50;17.48;;;13.00;75.50;;;;;;5006552;28;20030;-84
2021/11/05 01:22:51;;;;;;;28.52;17.90;;;13.00;75.60;;;;;;5002453;28;20080;-85
2021/11/05 01:25:17;;;;;;;31.58;18.83;;;12.90;75.70;;;;;;5007428;28;20033;-85
2021/11/05 01:27:45;;;;;;;28.58;17.67;;;13.00;75.90;;;;;;5006450;28;20033;-84
2021/11/05 01:30:12;;;;;;;30.80;17.80;;;12.90;76.00;;;;;;5004600;28;20384;-83
2021/11/05 01:32:39;;;;;;;29.90;17.52;;;13.00;76.00;;;;;;5003361;28;20439;-83
2021/11/05 01:35:06;;;;;;;28.42;17.73;;;13.00;76.10;;;;;;5002833;28;20069;-83
2021/11/05 01:37:32;;;;;;;29.73;18.17;;;13.00;76.20;;;;;;5007766;28;20037;-83
2021/11/05 01:39:58;;;;;;;31.10;18.27;;;13.00;76.30;;;;;;5001914;28;20036;-84
2021/11/05 01:42:24;;;;;;;29.35;18.80;;;13.00;76.30;;;;;;5003165;28;20034;-83
2021/11/05 01:44:50;;;;;;;28.75;17.88;;;13.00;76.30;;;;;;5004215;28;20038;-84
2021/11/05 01:47:18;;;;;;;32.05;19.50;;;13.00;76.50;;;;;;4988667;28;20410;-83
2021/11/05 01:49:46;;;;;;;30.38;18.80;;;13.00;76.50;;;;;;5001438;28;20085;-83
2021/11/05 01:52:13;;;;;;;29.50;17.70;;;13.10;76.60;;;;;;5006521;28;20034;-84
2021/11/05 01:54:38;;;;;;;34.40;18.77;;;13.00;76.60;;;;;;4988777;28;20037;-82
2021/11/05 01:57:05;;;;;;;28.80;17.25;;;13.10;76.80;;;;;;5000292;28;20046;-82
2021/11/05 01:59:35;;;;;;;31.55;18.88;;;13.00;77.00;;;;;;5019098;28;20032;-82
2021/11/05 02:02:08;;;;;;;32.78;19.30;;;13.10;77.00;;;;;;5004436;28;20378;-83
2021/11/05 02:04:36;;;;;;;32.35;17.85;;;13.10;77.20;;;;;;5016403;28;20062;-82
2021/11/05 02:07:02;;;;;;;31.98;18.90;;;13.10;77.20;;;;;;5002641;28;20157;-81
2021/11/05 02:09:29;;;;;;;31.48;18.23;;;13.10;77.30;;;;;;5002797;28;20063;-83
2021/11/05 02:12:00;;;;;;;30.88;18.55;;;13.10;77.30;;;;;;5003200;28;20046;-82
2021/11/05 02:14:28;;;;;;;28.80;17.25;;;13.10;77.40;;;;;;5003362;28;20128;-81
2021/11/05 02:17:00;;;;;;;30.35;17.70;;;13.10;77.50;;;;;;5001436;28;20068;-83
2021/11/05 02:19:29;;;;;;;33.88;18.15;;;13.10;77.60;;;;;;5001226;28;20084;-83
2021/11/05 02:21:56;;;;;;;30.63;17.45;;;13.10;77.70;;;;;;4984418;28;20073;-83
2021/11/05 02:24:24;;;;;;;32.53;18.10;;;13.10;77.70;;;;;;5000800;28;21331;-83
2021/11/05 02:26:51;;;;;;;30.45;17.38;;;13.20;77.80;;;;;;5001538;28;20403;-83
2021/11/05 02:29:18;;;;;;;29.63;17.90;;;13.20;78.00;;;;;;5003245;28;21012;-83
2021/11/05 02:31:44;;;;;;;27.70;16.17;;;13.20;78.00;;;;;;5003939;28;20641;-83
2021/11/05 02:34:10;;;;;;;30.77;16.90;;;13.20;78.10;;;;;;5004703;28;20065;-83
2021/11/05 02:36:37;;;;;;;29.92;17.70;;;13.20;78.10;;;;;;4983848;28;20040;-84
2021/11/05 02:39:08;;;;;;;28.48;16.13;;;13.20;78.20;;;;;;5005385;28;20113;-83
2021/11/05 02:41:40;;;;;;;31.45;17.30;;;13.20;78.30;;;;;;5002713;28;20481;-84
2021/11/05 02:44:06;;;;;;;28.42;16.15;;;13.20;78.30;;;;;;5016113;28;20037;-83
2021/11/05 02:46:33;;;;;;;28.45;16.98;;;13.20;78.30;;;;;;5006211;28;20052;-84
2021/11/05 02:49:00;;;;;;;31.27;16.60;;;13.30;78.40;;;;;;5002987;28;20176;-83
2021/11/05 02:51:27;;;;;;;28.27;16.05;;;13.20;78.50;;;;;;5001272;28;20038;-83
2021/11/05 02:53:54;;;;;;;29.10;16.88;;;13.20;78.50;;;;;;5003268;28;20424;-84
2021/11/05 02:56:21;;;;;;;31.35;18.15;;;13.30;78.60;;;;;;5006205;28;20060;-84
2021/11/05 02:58:48;;;;;;;31.30;16.90;;;13.30;79.30;;;;;;5019637;28;20037;-83
2021/11/05 03:01:14;;;;;;;31.60;16.95;;;13.30;78.70;;;;;;5001903;28;20492;-83
2021/11/05 03:03:41;;;;;;;33.90;18.10;;;13.30;78.80;;;;;;5001222;28;20119;-83
2021/11/05 03:06:06;;;;;;;32.42;18.02;;;13.30;78.80;;;;;;5000735;28;20073;-83
2021/11/05 03:08:33;;;;;;;30.27;16.88;;;13.30;78.80;;;;;;5001562;28;20061;-83
2021/11/05 03:10:58;;;;;;;32.15;18.15;;;13.30;78.90;;;;;;5001132;28;20026;-83
2021/11/05 03:13:24;;;;;;;33.10;18.27;;;13.30;79.00;;;;;;4999669;28;20181;-82
2021/11/05 03:15:50;;;;;;;31.95;17.77;;;13.30;79.00;;;;;;5001692;28;20535;-83
2021/11/05 03:18:17;;;;;;;31.38;17.58;;;13.30;79.10;;;;;;5001471;28;20038;-83
2021/11/05 03:20:44;;;;;;;32.92;17.90;;;13.40;79.00;;;;;;5017218;28;20080;-83
2021/11/05 03:23:11;;;;;;;33.33;18.77;;;13.40;79.00;;;;;;5005380;28;20492;-84
2021/11/05 03:25:38;;;;;;;33.28;17.33;;;13.40;79.10;;;;;;5002361;28;20050;-85
2021/11/05 03:28:04;;;;;;;30.63;18.00;;;13.40;79.10;;;;;;5003794;28;20036;-85
2021/11/05 03:30:30;;;;;;;33.97;18.40;;;13.40;79.20;;;;;;5003409;28;20057;-85
2021/11/05 03:32:56;;;;;;;32.08;18.13;;;13.40;79.10;;;;;;5023320;28;20585;-85
2021/11/05 03:35:22;;;;;;;33.60;18.27;;;13.40;79.10;;;;;;5008759;28;20034;-85
2021/11/05 03:37:48;;;;;;;32.92;18.08;;;13.40;79.30;;;;;;4993601;28;20057;-87
2021/11/05 03:40:16;;;;;;;31.02;18.00;;;13.40;79.20;;;;;;5009647;28;20077;-87
2021/11/05 03:42:43;;;;;;;33.55;18.88;;;13.40;79.30;;;;;;5009345;28;20076;-85
2021/11/05 03:45:09;;;;;;;36.17;18.63;;;13.40;79.30;;;;;;5005420;28;20061;-86
2021/11/05 03:47:36;;;;;;;35.88;19.83;;;13.40;79.40;;;;;;5006161;28;20030;-84
2021/11/05 03:50:03;;;;;;;32.90;18.40;;;13.40;79.50;;;;;;5005341;28;20468;-86
2021/11/05 03:52:29;;;;;;;37.90;19.05;;;13.40;79.60;;;;;;5006834;28;20069;-84
2021/11/05 03:54:55;;;;;;;36.47;19.50;;;13.40;79.50;;;;;;4986745;28;20086;-85
2021/11/05 03:57:21;;;;;;;34.05;18.52;;;13.50;79.60;;;;;;5007975;28;20128;-83
2021/11/05 03:59:47;;;;;;;35.70;19.33;;;13.50;79.60;;;;;;5002099;28;20041;-83
2021/11/05 04:02:13;;;;;;;36.05;19.02;;;13.50;79.70;;;;;;5005963;28;20038;-84
2021/11/05 04:04:39;;;;;;;32.90;18.73;;;13.40;79.70;;;;;;5006841;28;20396;-84
2021/11/05 04:07:05;;;;;;;36.83;20.13;;;13.50;79.80;;;;;;4988872;28;20033;-83
2021/11/05 04:09:30;;;;;;;32.83;18.52;;;13.50;79.80;;;;;;5018404;28;20137;-84
2021/11/05 04:11:56;;;;;;;36.28;19.40;;;13.50;79.90;;;;;;5003646;28;20026;-84
2021/11/05 04:14:22;;;;;;;35.45;20.05;;;13.50;79.80;;;;;;5004978;28;20026;-84
2021/11/05 04:16:48;;;;;;;37.35;19.00;;;13.50;79.90;;;;;;5006762;28;20037;-84
2021/11/05 04:19:14;;;;;;;37.00;19.23;;;13.50;80.00;;;;;;5004404;28;20061;-85
2021/11/05 04:21:40;;;;;;;35.72;19.92;;;13.60;80.10;;;;;;5008479;28;20030;-84
2021/11/05 04:24:06;;;;;;;34.20;19.25;;;13.50;79.90;;;;;;5005442;28;20117;-84
2021/11/05 04:26:33;;;;;;;33.00;18.48;;;13.60;80.00;;;;;;5002972;28;20501;-84
2021/11/05 04:28:59;;;;;;;32.45;19.02;;;13.60;80.00;;;;;;5005052;28;20451;-84
2021/11/05 04:31:25;;;;;;;35.50;19.13;;;13.60;80.20;;;;;;5007876;28;20057;-84
2021/11/05 04:33:51;;;;;;;32.97;19.98;;;13.60;80.20;;;;;;5003693;28;20121;-84
2021/11/05 04:36:21;;;;;;;37.63;20.85;;;13.60;80.10;;;;;;5005844;28;20091;-84
2021/11/05 04:38:48;;;;;;;36.13;19.63;;;13.60;80.10;;;;;;4986956;28;20037;-84
2021/11/05 04:41:14;;;;;;;37.05;20.08;;;13.60;80.10;;;;;;5003029;28;20034;-85
2021/11/05 04:43:40;;;;;;;37.88;20.38;;;13.60;80.20;;;;;;5005100;28;20096;-84
2021/11/05 04:46:06;;;;;;;38.17;19.50;;;13.60;80.20;;;;;;4985351;28;20397;-84
2021/11/05 04:48:32;;;;;;;34.25;19.95;;;13.60;80.10;;;;;;4987004;28;20022;-83
2021/11/05 04:50:59;;;;;;;35.65;19.38;;;13.60;80.20;;;;;;5005003;28;20026;-85
2021/11/05 04:53:24;;;;;;;36.95;21.38;;;13.60;80.10;;;;;;5006642;28;20034;-83
2021/11/05 04:55:50;;;;;;;39.17;21.17;;;13.70;80.30;;;;;;4986710;28;20049;-83
2021/11/05 04:58:17;;;;;;;33.58;18.85;;;13.70;80.30;;;;;;5003304;28;20574;-83
2021/11/05 05:00:43;;;;;;;37.65;20.08;;;13.70;80.20;;;;;;5004892;28;20041;-82
2021/11/05 05:03:09;;;;;;;37.10;20.73;;;13.70;80.30;;;;;;5002976;28;20045;-83
2021/11/05 05:05:35;;;;;;;36.28;21.50;;;13.70;80.20;;;;;;5004742;28;20044;-83
2021/11/05 05:08:01;;;;;;;42.72;20.75;;;13.70;80.20;;;;;;5004784;28;20029;-83
2021/11/05 05:10:28;;;;;;;40.13;21.10;;;13.80;80.20;;;;;;5003554;28;20037;-82
2021/11/05 05:12:54;;;;;;;40.33;21.65;;;13.70;80.10;;;;;;5004192;28;20148;-85
2021/11/05 05:15:20;;;;;;;35.20;20.60;;;13.80;80.20;;;;;;4986937;28;20030;-84
2021/11/05 05:17:47;;;;;;;37.80;21.30;;;13.70;80.10;;;;;;5003803;28;20732;-83
2021/11/05 05:20:16;;;;;;;36.00;20.15;;;13.80;80.10;;;;;;5003006;28;20030;-84
2021/11/05 05:22:43;;;;;;;40.28;21.92;;;13.80;80.10;;;;;;5006530;28;20045;-83
2021/11/05 05:25:12;;;;;;;38.40;21.80;;;13.80;80.10;;;;;;5003408;28;20124;-83
2021/11/05 05:27:42;;;;;;;40.00;21.63;;;13.80;80.10;;;;;;5000964;28;20484;-83
2021/11/05 05:30:11;;;;;;;37.90;21.38;;;13.80;80.10;;;;;;5019293;28;20405;-85
2021/11/05 05:32:38;;;;;;;37.83;21.23;;;13.80;80.00;;;;;;5002429;28;20188;-85
2021/11/05 05:35:05;;;;;;;37.35;21.48;;;13.80;80.10;;;;;;5003080;28;20030;-86
2021/11/05 05:37:31;;;;;;;40.85;22.15;;;13.80;80.00;;;;;;5003713;28;20057;-85
2021/11/05 05:39:57;;;;;;;39.15;21.95;;;13.80;80.00;;;;;;5005160;28;20072;-86
2021/11/05 05:42:22;;;;;;;41.80;23.25;;;13.80;79.80;;;;;;5006155;28;20076;-85
2021/11/05 05:44:48;;;;;;;39.50;23.08;;;13.80;79.80;;;;;;5005891;28;20041;-86
2021/11/05 05:47:14;;;;;;;42.08;22.67;;;13.90;79.90;;;;;;5003213;28;20030;-86
2021/11/05 05:49:40;;;;;;;39.72;22.80;;;13.80;79.90;;;;;;5005211;28;20030;-84
2021/11/05 05:52:07;;;;;;;37.22;21.40;;;13.80;79.70;;;;;;5002734;28;20037;-84
2021/11/05 05:54:33;;;;;;;41.35;23.00;;;13.80;79.70;;;;;;5001849;28;20030;-83
2021/11/05 05:56:59;;;;;;;37.15;22.10;;;13.80;79.60;;;;;;5003078;28;20065;-84
2021/11/05 05:59:25;;;;;;;41.60;23.30;;;13.90;79.60;;;;;;5001334;28;20072;-84
2021/11/05 06:01:51;;;;;;;35.83;22.92;;;13.90;79.50;;;;;;5002092;28;20030;-88
2021/11/05 06:04:19;;;;;;;34.85;21.88;;;13.90;79.50;;;;;;5003666;28;20408;-89
2021/11/05 06:06:45;;;;;;;41.35;23.90;;;13.90;79.50;;;;;;5004174;28;20370;-88
2021/11/05 06:09:11;;;;;;;42.50;23.65;;;13.90;79.50;;;;;;5004987;28;20393;-88
2021/11/05 06:11:37;;;;;;;39.05;22.02;;;13.90;79.40;;;;;;5006334;28;20034;-89
2021/11/05 06:14:03;;;;;;;42.45;23.80;;;13.90;79.30;;;;;;5004163;28;20025;-87
2021/11/05 06:16:29;;;;;;;40.30;22.48;;;13.90;79.30;;;;;;4990207;28;20160;-89
2021/11/05 06:18:54;;;;;;;38.53;23.33;;;14.00;79.30;;;;;;5002545;28;20057;-89
2021/11/05 06:21:25;;;;;;;41.92;23.65;;;14.00;79.30;;;;;;5001287;28;20120;-90
2021/11/05 06:23:52;;;;;;;38.70;22.50;;;14.00;79.30;;;;;;5006757;28;20030;-88
2021/11/05 06:26:18;;;;;;;37.83;23.42;;;14.00;79.20;;;;;;4999913;28;20392;-89
2021/11/05 06:28:44;;;;;;;36.28;22.13;;;13.90;79.10;;;;;;5006150;28;20026;-88
2021/11/05 06:31:10;;;;;;;39.13;23.17;;;14.00;79.10;;;;;;5005576;28;20366;-89
2021/11/05 06:33:36;;;;;;;40.03;23.13;;;14.00;79.10;;;;;;5020172;28;20030;-87
2021/11/05 06:36:02;;;;;;;41.30;23.88;;;14.00;79.10;;;;;;5003762;28;20040;-89
2021/11/05 06:38:28;;;;;;;39.08;22.88;;;14.00;79.10;;;;;;5000925;28;20171;-86
2021/11/05 06:40:54;;;;;;;40.53;23.88;;;14.00;79.10;;;;;;5005442;28;20124;-86
2021/11/05 06:43:21;;;;;;;40.80;23.27;;;14.00;79.00;;;;;;5004280;28;20037;-86
2021/11/05 06:45:47;;;;;;;39.75;24.20;;;14.00;78.90;;;;;;5000775;28;20034;-85
2021/11/05 06:48:13;;;;;;;40.55;22.05;;;14.00;78.80;;;;;;4989502;28;20128;-86
2021/11/05 06:50:41;;;;;;;36.63;21.77;;;14.10;78.90;;;;;;5002439;28;20038;-84
2021/11/05 06:53:10;;;;;;;38.83;22.45;;;14.00;78.80;;;;;;5004267;28;20041;-88
2021/11/05 06:55:37;;;;;;;37.47;21.95;;;14.10;78.90;;;;;;5017105;28;20040;-85
2021/11/05 06:58:07;;;;;;;36.88;22.15;;;14.10;78.70;;;;;;5000020;28;20069;-86
2021/11/05 07:00:33;;;;;;;41.97;24.65;;;14.10;78.70;;;;;;5001526;28;20595;-85
2021/11/05 07:02:59;;;;;;;37.85;22.83;;;14.10;78.60;;;;;;5001009;28;20034;-82
2021/11/05 07:05:26;;;;;;;39.08;23.08;;;14.10;78.60;;;;;;5002607;28;20034;-87
2021/11/05 07:07:52;;;;;;;37.60;22.48;;;14.10;78.50;;;;;;5005209;28;20034;-88
2021/11/05 07:10:18;;;;;;;40.67;23.25;;;14.10;78.40;;;;;;5006063;28;20037;-87
2021/11/05 07:12:46;;;;;;;37.45;23.27;;;14.10;78.50;;;;;;5004755;28;20412;-85
2021/11/05 07:15:12;;;;;;;38.78;23.20;;;14.10;78.40;;;;;;5005562;28;20038;-85
2021/11/05 07:17:39;;;;;;;37.42;22.08;;;14.10;78.50;;;;;;5008235;28;20543;-85
2021/11/05 07:20:07;;;;;;;34.90;22.08;;;14.10;78.40;;;;;;5003502;28;20042;-85
2021/11/05 07:22:35;;;;;;;40.03;23.80;;;14.20;78.50;;;;;;5008049;28;20041;-85
2021/11/05 07:25:03;;;;;;;43.65;24.00;;;14.10;78.30;;;;;;5007334;28;20032;-84
2021/11/05 07:27:28;;;;;;;36.03;21.83;;;14.20;78.40;;;;;;5007346;28;20034;-85
2021/11/05 07:29:56;;;;;;;39.45;22.45;;;14.20;78.20;;;;;;4987430;28;20077;-85
2021/11/05 07:32:22;;;;;;;38.05;22.73;;;14.20;78.30;;;;;;5006017;28;20030;-85
2021/11/05 07:34:53;;;;;;;39.00;23.40;;;14.20;78.20;;;;;;5008708;28;20037;-87
2021/11/05 07:37:20;;;;;;;39.30;23.45;;;14.20;78.10;;;;;;5005090;28;20030;-85
2021/11/05 07:39:46;;;;;;;36.55;23.17;;;14.20;78.10;;;;;;5004193;28;20084;-84
2021/11/05 07:42:14;;;;;;;40.22;23.70;;;14.20;78.00;;;;;;5007028;28;20057;-86
2021/11/05 07:44:41;;;;;;;37.38;22.23;;;14.20;78.20;;;;;;5007448;28;20057;-84
2021/11/05 07:47:07;;;;;;;38.63;23.42;;;14.20;78.10;;;;;;5005420;28;20116;-84
2021/11/05 07:49:34;;;;;;;41.47;23.27;;;14.20;78.00;;;;;;5008792;28;20026;-82
2021/11/05 07:52:00;;;;;;;39.10;23.48;;;14.20;78.00;;;;;;5007506;28;20026;-85
2021/11/05 07:54:26;;;;;;;40.92;23.98;;;14.20;78.10;;;;;;5006771;28;20113;-84
2021/11/05 08:01:50;;;;;;;40.53;23.33;;;14.20;78.00;;;;;;4985797;28;20196;-92
2021/11/05 08:12:47;;;;;;;47.95;25.00;;;14.30;79.70;;;;;;4924794;29;20062;-92
2021/11/05 08:17:30;;;;;;;40.10;23.75;;;14.30;79.70;;;;;;4902605;29;20051;-92
2021/11/05 08:31:06;;;;;;;40.05;22.23;;;14.30;79.90;;;;;;4934105;29;20139;-93
2021/11/05 08:33:32;;;;;;;40.42;24.23;;;14.30;79.80;;;;;;4901604;29;20033;-90
2021/11/05 08:35:58;;;;;;;38.47;23.48;;;14.30;79.70;;;;;;4999376;28;20073;-89
2021/11/05 08:38:25;;;;;;;41.17;23.40;;;14.40;79.70;;;;;;5025512;28;20033;-90
2021/11/05 08:40:54;;;;;;;39.58;23.55;;;14.40;79.50;;;;;;5021913;28;20033;-91
2021/11/05 09:06:13;;;;;;;42.75;23.98;;;14.40;79.60;;;;;;4951647;29;20082;-92
2021/11/05 09:12:53;;;;;;;45.20;23.92;;;14.50;80.00;;;;;;4890587;29;20047;-91
2021/11/05 09:19:38;;;;;;;37.40;22.77;;;14.50;79.90;;;;;;4896621;29;20056;-87
2021/11/05 09:22:59;;;;;;;44.42;24.60;;;14.60;79.80;;;;;;4865973;29;20056;-89
2021/11/05 09:25:27;;;;;;;40.65;23.90;;;14.60;79.70;;;;;;4872801;29;20104;-88
2021/11/05 09:28:52;;;;;;;39.90;22.90;;;14.60;79.50;;;;;;4893107;29;20072;-88
2021/11/05 09:31:18;;;;;;;36.03;22.33;;;14.60;79.50;;;;;;4889355;29;20040;-88
2021/11/05 09:38:44;;;;;;;;;;;;;;;;;;;;;
2021/11/05 09:49:44;;;;;;;38.40;21.48;;;14.70;79.00;;;;;;4865574;29;20040;-87
2021/11/05 09:53:07;;;;;;;36.72;21.85;;;14.70;79.10;;;;;;4859169;29;20041;-87
2021/11/05 10:26:32;;;;;;;36.60;21.92;;;14.80;81.00;;;;;;4802391;29;20749;-89
2021/11/05 10:28:59;;;;;;;37.50;23.05;;;14.80;81.20;;;;;;4821594;29;20543;-89
2021/11/05 10:31:29;;;;;;;37.75;22.90;;;14.80;81.30;;;;;;4988887;28;20044;-89
2021/11/05 10:33:56;;;;;;;37.00;21.58;;;14.80;81.30;;;;;;5026614;28;20095;-88
2021/11/05 10:36:24;;;;;;;39.60;23.20;;;14.80;81.30;;;;;;5009616;28;20029;-87
2021/11/05 10:38:54;;;;;;;38.45;23.17;;;14.80;81.20;;;;;;5001644;28;20080;-93
2021/11/05 10:41:23;;;;;;;35.28;21.98;;;14.80;81.00;;;;;;5013629;28;20153;-90
2021/11/05 10:43:52;;;;;;;37.38;23.05;;;14.80;80.90;;;;;;5013060;28;20496;-89
2021/11/05 10:46:32;;;;;;;36.45;22.88;;;14.80;80.80;;;;;;5039821;28;20033;-90
2021/11/05 10:49:06;;;;;;;36.67;22.10;;;14.80;80.50;;;;;;5124727;23;20155;-91
2021/11/05 10:51:34;;;;;;;36.97;21.20;;;14.80;80.20;;;;;;5084618;28;20486;-88
2021/11/05 10:54:02;;;;;;;34.50;18.63;;;14.80;80.10;;;;;;5086609;28;20134;-86
2021/11/05 10:56:30;;;;;;;26.20;16.75;;;14.90;80.50;;;;;;5099817;28;20040;-91
2021/11/05 10:58:59;;;;;;;28.70;17.70;;;14.90;80.30;;;;;;5091248;28;20039;-87
2021/11/05 11:01:34;;;;;;;28.23;17.65;;;15.00;80.40;;;;;;5085625;28;20055;-91
2021/11/05 11:04:02;;;;;;;26.38;17.08;;;15.00;80.30;;;;;;5086373;28;20032;-89
2021/11/05 11:06:29;;;;;;;28.90;18.05;;;15.00;80.10;;;;;;5097800;28;20036;-89
2021/11/05 11:09:28;;;;;;;29.20;19.25;;;15.00;79.90;;;;;;5093887;28;20036;-88
2021/11/05 11:11:55;;;;;;;30.88;19.23;;;15.00;79.80;;;;;;5071173;28;20074;-88
2021/11/05 11:14:29;;;;;;;29.08;17.48;;;15.10;79.70;;;;;;5068238;28;20478;-89
2021/11/05 11:17:00;;;;;;;30.92;18.23;;;15.00;79.60;;;;;;5088597;28;20059;-89
2021/11/05 11:19:31;;;;;;;29.38;18.05;;;15.10;79.60;;;;;;5086975;28;20446;-89
2021/11/05 11:22:01;;;;;;;28.75;18.50;;;15.10;79.50;;;;;;5067079;28;20016;-90
2021/11/05 11:24:29;;;;;;;30.95;19.42;;;15.10;79.50;;;;;;5105121;28;20036;-93
2021/11/05 11:26:57;;;;;;;30.02;18.63;;;15.10;79.50;;;;;;5411860;22;20057;-91
2021/11/05 11:29:26;;;;;;;32.60;18.73;;;15.10;79.50;;;;;;5209982;23;20041;-92
2021/11/05 11:31:57;;;;;;;33.60;19.05;;;15.10;79.50;;;;;;5038705;28;20045;-94
2021/11/05 11:34:25;;;;;;;35.03;18.58;;;15.10;79.40;;;;;;5056642;28;20036;-91
2021/11/05 11:36:54;;;;;;;32.72;19.17;;;15.10;79.30;;;;;;5028852;28;20026;-91
2021/11/05 11:39:22;;;;;;;35.67;20.20;;;15.10;79.30;;;;;;5034724;28;20034;-92
2021/11/05 11:41:53;;;;;;;31.73;19.73;;;15.10;79.30;;;;;;5025900;28;20037;-94
2021/11/05 11:44:33;;;;;;;33.13;19.70;;;15.10;79.10;;;;;;5028904;28;20009;-92
2021/11/05 11:47:03;;;;;;;33.80;19.75;;;15.10;79.10;;;;;;5984114;22;20028;-89
2021/11/05 11:52:18;;;;;;;28.25;18.50;;;15.20;79.10;;;;;;5892928;23;20043;-91
2021/11/05 11:55:00;;;;;;;31.40;19.23;;;15.20;79.10;;;;;;4992617;28;20400;-91
2021/11/05 11:57:31;;;;;;;31.25;19.23;;;15.20;79.20;;;;;;5007116;28;20030;-91
2021/11/05 12:00:15;;;;;;;30.48;18.13;;;15.20;79.30;;;;;;4995031;28;20040;-90
2021/11/05 12:02:49;;;;;;;30.92;18.83;;;15.20;79.30;;;;;;4986001;28;20200;-91
2021/11/05 12:05:18;;;;;;;29.05;18.23;;;15.20;79.40;;;;;;4973889;28;20044;-92
2021/11/05 12:07:45;;;;;;;32.33;20.38;;;15.20;79.60;;;;;;4983739;28;20034;-88
2021/11/05 12:10:27;;;;;;;30.25;19.15;;;15.20;79.80;;;;;;4988589;28;20037;-90
2021/11/05 12:12:56;;;;;;;31.90;19.40;;;15.20;79.80;;;;;;4970818;28;20120;-92
2021/11/05 12:15:23;;;;;;;38.30;21.55;;;15.20;79.70;;;;;;4986057;28;20030;-87
2021/11/05 12:17:49;;;;;;;34.78;20.70;;;15.20;79.90;;;;;;4971068;28;20026;-91
2021/11/05 12:20:33;;;;;;;36.50;21.20;;;15.30;79.90;;;;;;4987848;28;20022;-92
2021/11/05 12:23:12;;;;;;;36.47;21.77;;;15.30;79.90;;;;;;4973453;28;20121;-92
2021/11/05 12:25:45;;;;;;;36.50;20.23;;;15.30;79.90;;;;;;5005837;28;20344;-91
2021/11/05 13:32:03;;;;;;;35.30;20.42;;;15.40;80.70;;;;;;5273787;23;20293;31
2021/11/05 13:34:37;;;;;;;39.30;21.65;;;15.40;80.80;;;;;;4912084;29;20058;-86
2021/11/05 13:37:03;;;;;;;35.47;19.80;;;15.40;80.70;;;;;;4912090;29;20048;-91
2021/11/05 13:39:29;;;;;;;31.83;19.20;;;15.40;80.60;;;;;;4906802;29;20040;-89
2021/11/05 13:41:56;;;;;;;31.75;20.00;;;15.40;80.60;;;;;;4909229;29;20053;-93
2021/11/05 13:44:26;;;;;;;33.80;20.10;;;15.40;80.70;;;;;;4896306;29;20028;-89
2021/11/05 13:46:52;;;;;;;34.72;20.42;;;15.50;80.90;;;;;;5179532;23;21539;-88
2021/11/05 13:49:18;;;;;;;33.42;20.55;;;15.50;81.10;;;;;;4900654;29;20043;-91
2021/11/05 13:51:44;;;;;;;32.72;20.63;;;15.50;81.20;;;;;;4903384;29;20047;-91
2021/11/05 13:54:12;;;;;;;33.40;19.60;;;15.50;81.20;;;;;;4874527;29;20100;-91
2021/11/05 13:56:42;;;;;;;31.98;19.55;;;15.50;81.10;;;;;;4901096;29;20128;-90
2021/11/05 13:59:23;;;;;;;30.13;18.63;;;15.50;81.00;;;;;;4869835;29;20044;-91
2021/11/05 14:01:52;;;;;;;35.67;19.73;;;15.50;80.90;;;;;;4870143;29;20495;-89
2021/11/05 14:04:20;;;;;;;31.88;19.23;;;15.50;81.10;;;;;;4936147;23;20056;-93
2021/11/05 14:06:50;;;;;;;55.47;21.15;;;15.50;81.20;;;;;;5020201;23;20056;-92
2021/11/05 14:09:31;;;;;;;41.42;18.23;;;15.50;82.10;;;;;;4922064;29;20029;-91
2021/11/05 14:12:01;;;;;;;28.48;16.95;;;15.50;81.30;;;;;;4919335;29;20036;-92
2021/11/05 14:14:33;;;;;;;32.15;18.40;;;15.60;81.20;;;;;;4906414;29;20039;-91
2021/11/05 14:17:10;;;;;;;32.40;18.40;;;15.60;81.50;;;;;;4921616;29;20506;-92
2021/11/05 14:19:36;;;;;;;32.30;18.13;;;15.60;81.80;;;;;;4916429;29;20125;-88
2021/11/05 14:22:07;;;;;;;31.13;17.98;;;15.60;81.90;;;;;;4920834;29;20044;-92
2021/11/05 14:24:38;;;;;;;32.80;19.67;;;15.60;81.80;;;;;;4911731;29;20059;-89
2021/11/05 14:27:10;;;;;;;37.42;20.80;;;15.60;82.60;;;;;;4909235;29;20043;-93
2021/11/05 14:29:52;;;;;;;33.67;20.05;;;15.60;82.80;;;;;;4925061;29;20036;-92
2021/11/05 14:32:41;;;;;;;31.45;19.05;;;15.60;83.40;;;;;;4904000;29;20028;-91
2021/11/05 14:35:20;;;;;;;32.47;18.98;;;15.60;82.70;;;;;;4911186;29;20040;-90
2021/11/05 14:37:54;;;;;;;35.28;19.15;;;15.60;82.60;;;;;;4907952;29;20032;-91
2021/11/05 14:40:59;;;;;;;32.03;18.65;;;15.60;82.50;;;;;;4909267;29;20031;-90
2021/11/05 14:43:28;;;;;;;29.88;17.85;;;15.60;82.30;;;;;;4843823;29;20064;-86
2021/11/05 14:46:00;;;;;;;29.10;17.52;;;15.60;82.30;;;;;;4891996;29;20036;-87
2021/11/05 14:48:37;;;;;;;31.05;18.73;;;15.60;82.20;;;;;;4895581;29;20036;-87
2021/11/05 14:51:23;;;;;;;30.95;17.60;;;15.60;82.80;;;;;;4925288;29;20042;-87
2021/11/05 14:54:07;;;;;;;30.65;18.00;;;15.60;83.00;;;;;;4934275;29;20044;-93
2021/11/05 14:56:56;;;;;;;28.92;17.15;;;15.60;83.00;;;;;;4895868;29;20092;-90
2021/11/05 14:59:33;;;;;;;26.38;16.85;;;15.60;82.70;;;;;;4886955;29;20167;-91
2021/11/05 15:02:08;;;;;;;23.40;14.65;;;15.60;82.20;;;;;;4876548;29;20036;-91
2021/11/05 15:04:55;;;;;;;24.73;15.20;;;15.60;81.80;;;;;;4899571;29;20032;-89
2021/11/05 15:07:21;;;;;;;23.80;14.43;;;15.60;81.70;;;;;;4935899;23;20080;-89
2021/11/05 15:09:47;;;;;;;24.25;14.65;;;15.60;81.60;;;;;;4898567;29;20024;-90
2021/11/05 15:12:25;;;;;;;25.40;14.80;;;15.60;81.60;;;;;;4879412;29;20045;-93
2021/11/05 15:14:52;;;;;;;63.33;15.55;;;15.60;81.60;;;;;;4862408;29;20051;-90
2021/11/05 15:17:20;;;;;;;33.00;13.35;;;15.70;82.20;;;;;;4902510;29;20033;-92
2021/11/05 15:19:46;;;;;;;31.50;15.73;;;15.70;82.10;;;;;;4869460;29;20103;-91
2021/11/05 15:22:12;;;;;;;27.00;13.55;;;15.70;82.00;;;;;;4871728;29;20092;-91
2021/11/05 15:27:36;;;;;;;24.90;13.95;;;15.70;82.20;;;;;;5175715;23;20368;-89
2021/11/05 15:30:08;;;;;;;20.95;13.77;;;15.70;83.00;;;;;;5044443;23;20063;-92